Immagine casuale
Testata Regione Lazio ARSIAL SIARL

Ultima Misura Rilevata

Temperatura, Umidità, Pioggia, Pressione Radiazione Solare, Venti, Evapotraspirazione, ecc.
Temperature diurne e notturne Direzione vento Legenda
Prov Stazione Data TMin TMed TMax UMed Pioggia PMed
FR ALATRI Basciano 17/05/2022 15,1 21,4 29,7 60 0 1.020
FR ALVITO Az. Ist. S. Benedetto 17/05/2022 11,7 19,8 28,5 72 0 1.018
FR ANAGNI La Gloria 17/05/2022 10,6 20,4 29,6 61 0 1.017
FR ARPINO Vigne Piane 17/05/2022 15,5 20,3 28,5 69 0 1.022
FR BOVILLE ERNICA Sasso 17/05/2022 14,1 21,6 31,1 70 0 1.018
FR CECCANO C.da Passo del Cardinale 17/05/2022 10,1 20 29,6 74 0 ----
FR ESPERIA Modale 17/05/2022 11,8 20,2 30 78 0 1.021
FR PASTENA Acero 17/05/2022 8,9 19,3 30,2 74 0 1.024
FR PIGLIO Civitella 17/05/2022 12,1 20,4 30,5 61 0 1.016
FR PONTECORVO Melfi di Sotto 17/05/2022 11,5 20,6 31,6 59 0 ----
FR S. ELIA FIUMERAPIDO Portella 17/05/2022 13,9 20,8 30,4 77 0 1.018
FR S. GIORGIO A LIRI Porto 17/05/2022 11,8 20,6 30,6 80 0 1.023
FR SGURGOLA Campo Lungo 17/05/2022 9,3 20,4 30,4 65 0 ----
FR VALLECORSA Serbatoio comunale 17/05/2022 15,3 19,9 25,9 68 0 1.018
LT APRILIA Le Ferriere 17/05/2022 12 20,8 28,3 64 0 1.018
LT CISTERNA B.go Carso 17/05/2022 10 19,2 27,7 68 0 ----
LT CISTERNA Doganella di Ninfa 17/05/2022 N.D. N.D. N.D. N.D. N.D. N.D.
LT CORI Portone 17/05/2022 12,8 21,5 30,9 60 0 1.017
LT FONDI Capratica 17/05/2022 12,3 19,3 25,5 85 0 1.018
LT FORMIA Loc. Gianola 17/05/2022 13,5 19,6 24,9 86 0 ----
LT ITRI Valle Quercia 17/05/2022 16,1 20,9 26,8 79 0 1.017
LT MAENZA Casacotta 17/05/2022 12,3 20,5 27,9 69 0 1.017
LT MINTURNO Pulcherini 17/05/2022 16,4 20,4 25,9 80 0 1.017
LT PONTINIA Cotarda 17/05/2022 10,8 20,2 28,6 76 0 1.017
LT SABAUDIA Acquaviva 17/05/2022 11,2 18,4 24,7 83 0 1.018
LT SONNINO Frasso 17/05/2022 15,8 21,7 29,8 70 0 1.017
RI ACCUMOLI Terracino 17/05/2022 12,3 17,7 23,6 56 0 1.018
RI BORGOVELINO Ponte Basso 17/05/2022 10,3 18,7 29,1 66 0 1.025
RI CANTALUPO S. Francesco 17/05/2022 10,3 19,5 28,5 67 0 ----
RI CASTEL DI TORA Monte di Tora 17/05/2022 9,1 18 27,5 67 0 1.018
RI CASTELNUOVO FARFA C. Spadone 17/05/2022 13,4 22 30,1 60 0 ----
RI CONFIGNI Portella 17/05/2022 13,8 21,2 29 52 0 1.016
RI FARA SABINA Canneto 17/05/2022 15,5 22,5 31 50 0 1.016
RI FARA SABINA Sant'Andrea 17/05/2022 13,8 21,9 30,8 56 0 ----
RI MONTELEONE S. Prato Camino 17/05/2022 12 20,1 28,8 60 0 1.021
RI MONTOPOLI IN SABINA Colle Arcone 17/05/2022 12,2 20,8 29,8 64 0 ----
RI MONTOPOLI IN SABINA Villa Caprola 17/05/2022 13 22,6 33,4 71 0 ----
RI POGGIO CATINO Pastine 17/05/2022 13 21,1 29,3 54 0 ----
RI POGGIO NATIVO Casali 17/05/2022 14,9 21,2 27,8 56 0 ----
RI RIETI Piana di Rieti 17/05/2022 8,5 19,4 28,7 62 0 1.020
RI SCANDRIGLIA Ponticelli 17/05/2022 13,7 20,7 27,7 57 0 ----
RM AGOSTA La Cisterna 17/05/2022 11,1 19,3 30,1 62 0 1.021
RM BRACCIANO Prato Pianciano 17/05/2022 12,7 21,9 32 51 0 1.020
RM CANALE MONTERANO Monte Virginio 17/05/2022 9,1 19,1 31,3 64 0 1.019
RM CERVETERI Campo di Mare 17/05/2022 12,9 20,1 25,6 67 0 ----
RM CIVITELLA S.PAOLO Le Cese 17/05/2022 11,8 21,3 32,4 56 0 1.019
RM FIUMICINO Maccarese 17/05/2022 10,4 19,4 26,2 76 0 1.017
RM FIUMICINO Testa di Lepre 17/05/2022 12,5 21,8 30,2 53 0 ----
RM FORMELLO Perazzeta 17/05/2022 12,6 21,8 30,5 54 0 ----
RM FRASCATI Prata Porci 17/05/2022 11,8 21,1 30,4 53 0 1.018
RM GENAZZANO Coop. La Sonnina 17/05/2022 13 20,8 28,7 55 0 1.018
RM GROTTAFERRATA Valle Marciana 17/05/2022 14,5 21,2 29,4 49 0 1.018
RM LADISPOLI Palo Laziale 17/05/2022 11,3 18,6 23,4 76 0 1.019
RM LICENZA Colle Franco 17/05/2022 11,4 19,3 28,9 62 0 1.017
RM MARCELLINA V. Campetella 17/05/2022 12,7 21,4 29,8 57 0 ----
RM MARINO Gotto d'Oro 17/05/2022 14,2 22 29,3 46 0 1.018
RM MONTECOMPATRI Colle Mattia 17/05/2022 11,9 21,2 31 54 0 1.019
RM MONTECOMPATRI Pantano Borghese 17/05/2022 8,1 20,4 33,4 64 0 1.016
RM MONTELIBRETTI Bruciati 17/05/2022 10,7 21 31,9 61 0 ----
RM MONTEPORZIO Camaldoli 17/05/2022 12,7 18,9 26,5 53 0 1.019
RM MONTEROTONDO Grotta Marozza 17/05/2022 11,3 21,8 30,9 55 0 1.018
RM PALOMBARA Fonte Grande 17/05/2022 9,7 20,2 30,7 58 0 ----
RM ROMA Ponte di Nona 17/05/2022 12,5 22,2 30,9 57 0 1.017
RM ROMA Via Lanciani 38 17/05/2022 15,4 23,2 29,8 50 0 1.016
RM S. GREGORIO C. Faustiniano 17/05/2022 14,3 21,5 30,7 51 0 1.021
RM VELLETRI Cantina Sperimentale 17/05/2022 13,6 21,1 28,9 52 0 1.017
RM VELLETRI Prato Lungo 17/05/2022 13 21 28,6 52 0 ----
RM ZAGAROLO Santa Apollara 17/05/2022 14,8 21,9 30,4 50 0 ----
VT ACQUAPENDENTE Falconiera 17/05/2022 8,2 18,9 29,4 58 0 1.020
VT BAGNOREGIO Castell Cellesi 17/05/2022 13,6 20,8 27,4 49 0 ----
VT BASSANO R. Piano Mola 17/05/2022 13,9 20,4 30,5 56 0 1.020
VT BLERA Puntoni 17/05/2022 12,1 20,3 28,7 58 0 1.018
VT BOLSENA Capone 17/05/2022 10,6 20,6 31,9 57 0 1.020
VT BOLSENA Rentica 17/05/2022 10,2 18,6 27,2 65 0 ----
VT CANINO Diga Timone 17/05/2022 11,6 20,2 29,7 63 0 1.024
VT CANINO Pianacce 17/05/2022 10 20,4 28,9 58 0 1.018
VT CANINO San Valeriano 17/05/2022 13,8 21,5 28,2 49 0 ----
VT CELLENO Acquaforte 17/05/2022 10,3 19,4 27,2 65 0 ----
VT CORCHIANO Pantalone 17/05/2022 8,5 19,8 31 60 0 1.023
VT FARNESE Gressa 17/05/2022 11,3 19,6 27 52 0 ----
VT FARNESE Pian di Sala 17/05/2022 6,9 17,6 28,6 70 0 ----
VT GROTTE DI CASTRO Borghetto 17/05/2022 10 19,4 28,2 62 0 1.018
VT GROTTE DI CASTRO Purgatorio 17/05/2022 9,8 19,7 29,9 57 0 1.016
VT LATERA Centro Florovivaistico 17/05/2022 6,8 18,2 28,5 66 0 1.020
VT MONTALTO Le Murelle 17/05/2022 12,3 19,2 25 71 0 1.019
VT MONTALTO Pescia Romana 17/05/2022 11,3 21,2 30,8 61 0 1.017
VT MONTEFIASCONE Commenda 17/05/2022 12,6 21 29,3 57 0 ----
VT RONCIGLIONE Ponterotto 17/05/2022 10,3 19,9 28,7 57 0 ----
VT SORIANO CIMINO Pantane 17/05/2022 6,6 18,7 29,6 61 0 1.021
VT SORIANO CIMINO Poggio di Chia 17/05/2022 9,5 19,1 28,7 66 0 ----
VT TARQUINIA Portaccia 17/05/2022 11,2 19,9 26,6 68 0 ----
VT TUSCANIA Montebello 17/05/2022 12,1 19,8 26 53 0 ----
VT VETRALLA Marchionato 17/05/2022 12 20,2 27,5 60 0 ----
VT VITERBO Pisello 17/05/2022 11,8 20,4 28,3 54 0 ----
N.D. = Dati Non Disponibili
---- = Sensore non presente

Le misure esposte sono grezze, ovvero non sono state validate.